createdAt,value
2023-05-22T00:00:18.002Z,84.45
2023-05-22T00:01:18.022Z,84.45
2023-05-22T00:02:18.099Z,84.35
2023-05-22T00:03:18.139Z,83.95
2023-05-22T00:04:18.124Z,84.45
2023-05-22T00:05:18.143Z,84.55
2023-05-22T00:06:18.154Z,84.95
2023-05-22T00:07:18.179Z,85.90
2023-05-22T00:08:18.203Z,86.41
2023-05-22T00:09:18.294Z,86.04
2023-05-22T00:10:18.298Z,86.15
2023-05-22T00:11:18.278Z,87.65
2023-05-22T00:12:18.307Z,87.35
2023-05-22T00:13:18.340Z,86.85
2023-05-22T00:14:18.353Z,87.35
2023-05-22T00:15:18.402Z,86.95
2023-05-22T00:16:18.404Z,87.05
2023-05-22T00:17:18.607Z,87.49
2023-05-22T00:18:18.455Z,88.10
2023-05-22T00:19:18.560Z,89.01
2023-05-22T00:20:18.562Z,88.95
2023-05-22T00:21:18.548Z,89.65
2023-05-22T00:22:18.561Z,89.75
2023-05-22T00:23:18.587Z,89.35
2023-05-22T00:24:18.622Z,89.55
2023-05-22T00:25:18.636Z,90.06
2023-05-22T00:26:19.549Z,90.30
2023-05-22T00:27:18.689Z,89.65
2023-05-22T00:28:18.709Z,89.45
2023-05-22T00:29:18.791Z,89.86
2023-05-22T00:30:18.772Z,89.75
2023-05-22T00:31:18.802Z,89.35
2023-05-22T00:32:18.808Z,89.45
2023-05-22T00:33:18.833Z,89.55
2023-05-22T00:34:18.922Z,89.65
2023-05-22T00:35:18.890Z,89.55
2023-05-22T00:36:18.913Z,89.55
2023-05-22T00:37:18.934Z,89.75
2023-05-22T00:38:18.989Z,89.45
2023-05-22T00:39:18.982Z,89.45
2023-05-22T00:40:19.012Z,88.45
2023-05-22T00:41:19.033Z,88.20
2023-05-22T00:42:19.068Z,88.30
2023-05-22T00:43:19.131Z,88.90
2023-05-22T00:44:19.111Z,88.65
2023-05-22T00:45:19.142Z,89.55
2023-05-22T00:46:19.203Z,89.45
2023-05-22T00:47:19.189Z,89.86
2023-05-22T00:48:19.248Z,90.46
2023-05-22T00:49:19.232Z,91.21
2023-05-22T00:50:19.258Z,91.76
2023-05-22T00:51:19.284Z,91.25
2023-05-22T00:52:19.314Z,90.85
2023-05-22T00:53:19.378Z,90.50
2023-05-22T00:54:19.360Z,91.01
2023-05-22T00:55:19.396Z,89.75
2023-05-22T00:56:19.413Z,89.86
2023-05-22T00:57:19.442Z,89.65
2023-05-22T00:58:19.495Z,89.55
2023-05-22T00:59:19.508Z,89.86
2023-05-22T01:00:19.510Z,90.46
2023-05-22T01:01:19.566Z,91.01
2023-05-22T01:02:19.551Z,91.01
2023-05-22T01:03:19.671Z,91.51
2023-05-22T01:04:19.679Z,91.82
2023-05-22T01:05:19.629Z,91.91
2023-05-22T01:06:19.658Z,92.16
2023-05-22T01:07:19.682Z,92.06
2023-05-22T01:08:19.754Z,91.46
2023-05-22T01:09:19.730Z,91.35
2023-05-22T01:10:19.750Z,92.06
2023-05-22T01:11:19.776Z,91.61
2023-05-22T01:12:19.804Z,91.51
2023-05-22T01:13:19.850Z,91.91
2023-05-22T01:14:19.952Z,91.41
2023-05-22T01:15:19.920Z,91.67
2023-05-22T01:16:19.988Z,90.77
2023-05-22T01:17:19.926Z,91.27
2023-05-22T01:18:20.001Z,90.97
2023-05-22T01:19:19.993Z,91.06
2023-05-22T01:20:20.030Z,92.52
2023-05-22T01:21:20.032Z,92.22
2023-05-22T01:22:20.052Z,92.36
2023-05-22T01:23:20.078Z,92.66
2023-05-22T01:24:20.095Z,92.36
2023-05-22T01:25:20.116Z,92.06
2023-05-22T01:26:20.144Z,92.12
2023-05-22T01:27:20.167Z,91.82
2023-05-22T01:28:20.207Z,91.82
2023-05-22T01:29:20.279Z,91.71
2023-05-22T01:30:20.265Z,91.37
2023-05-22T01:31:20.273Z,91.06
2023-05-22T01:32:20.289Z,91.57
2023-05-22T01:33:20.369Z,91.37
2023-05-22T01:34:20.392Z,92.07
2023-05-22T01:35:20.365Z,91.37
2023-05-22T01:36:20.402Z,92.68
2023-05-22T01:37:20.413Z,92.72
2023-05-22T01:38:20.434Z,93.43
2023-05-22T01:39:20.527Z,93.57
2023-05-22T01:40:20.497Z,94.28
2023-05-22T01:41:20.512Z,94.68
2023-05-22T01:42:20.543Z,95.14
2023-05-22T01:43:20.573Z,94.59
2023-05-22T01:44:20.625Z,95.49
2023-05-22T01:45:20.615Z,95.09
2023-05-22T01:46:20.768Z,95.64
2023-05-22T01:47:20.714Z,95.29
2023-05-22T01:48:20.709Z,95.29
2023-05-22T01:49:20.708Z,95.29
2023-05-22T01:50:20.770Z,96.60
2023-05-22T01:51:20.781Z,96.50
2023-05-22T01:52:20.786Z,95.19
2023-05-22T01:53:20.811Z,97.31
2023-05-22T01:54:20.826Z,98.11
2023-05-22T01:55:20.901Z,98.47
2023-05-22T01:56:20.893Z,99.18
2023-05-22T01:57:21.608Z,99.78
2023-05-22T01:58:20.925Z,99.62
2023-05-22T01:59:20.956Z,99.98
2023-05-22T02:00:21.002Z,99.98
2023-05-22T02:01:21.046Z,99.62
2023-05-22T02:02:21.119Z,99.93
2023-05-22T02:03:21.152Z,99.99
2023-05-22T02:04:21.096Z,99.99
2023-05-22T02:05:21.170Z,99.99
2023-05-22T02:06:21.119Z,99.99
2023-05-22T02:07:21.175Z,99.99
2023-05-22T02:08:21.177Z,99.99
2023-05-22T02:09:21.197Z,99.99
2023-05-22T02:10:21.211Z,99.99
2023-05-22T02:11:21.235Z,99.99
2023-05-22T02:12:21.337Z,99.99
2023-05-22T02:13:21.296Z,99.99
2023-05-22T02:14:21.317Z,99.99
2023-05-22T02:15:21.344Z,99.78
2023-05-22T02:16:21.436Z,98.27
2023-05-22T02:17:21.408Z,97.96
2023-05-22T02:18:21.477Z,97.91
2023-05-22T02:19:21.489Z,96.60
2023-05-22T02:20:21.461Z,95.29
2023-05-22T02:21:21.508Z,96.60
2023-05-22T02:22:21.507Z,96.40
2023-05-22T02:23:21.593Z,96.20
2023-05-22T02:24:21.561Z,94.99
2023-05-22T02:25:21.569Z,95.39
2023-05-22T02:26:21.593Z,96.66
2023-05-22T02:27:21.621Z,96.36
2023-05-22T02:28:21.669Z,96.40
2023-05-22T02:29:21.669Z,97.11
2023-05-22T02:30:21.720Z,97.51
2023-05-22T02:31:21.777Z,98.02
2023-05-22T02:32:21.776Z,98.62
2023-05-22T02:33:21.793Z,98.22
2023-05-22T02:34:21.798Z,98.32
2023-05-22T02:35:21.848Z,98.52
2023-05-22T02:36:21.847Z,98.11
2023-05-22T02:37:21.865Z,98.62
2023-05-22T02:38:21.881Z,98.62
2023-05-22T02:39:21.904Z,98.93
2023-05-22T02:40:21.960Z,98.72
2023-05-22T02:41:21.984Z,98.93
2023-05-22T02:42:21.974Z,98.82
2023-05-22T02:43:21.996Z,97.91
2023-05-22T02:44:22.038Z,98.42
2023-05-22T02:45:22.044Z,98.16
2023-05-22T02:46:22.171Z,98.42
2023-05-22T02:47:22.094Z,98.32
2023-05-22T02:48:22.113Z,98.36
2023-05-22T02:49:22.141Z,98.32
2023-05-22T02:50:22.166Z,98.42
2023-05-22T02:51:22.243Z,98.07
2023-05-22T02:52:22.212Z,98.42
2023-05-22T02:53:22.236Z,98.32
2023-05-22T02:54:22.257Z,98.32
2023-05-22T02:55:22.282Z,98.32
2023-05-22T02:56:22.332Z,98.82
2023-05-22T02:57:22.327Z,98.82
2023-05-22T02:58:22.408Z,99.22
2023-05-22T02:59:22.374Z,99.33
2023-05-22T03:00:22.472Z,99.02
2023-05-22T03:01:22.456Z,99.63
2023-05-22T03:02:22.445Z,99.84
2023-05-22T03:03:22.543Z,99.63
2023-05-22T03:04:22.504Z,99.99
2023-05-22T03:05:22.519Z,99.99
2023-05-22T03:06:22.575Z,99.99
2023-05-22T03:07:22.620Z,99.99
2023-05-22T03:08:22.599Z,99.98
2023-05-22T03:09:22.619Z,99.99
2023-05-22T03:10:22.654Z,99.99
2023-05-22T03:11:22.662Z,99.99
2023-05-22T03:12:22.724Z,99.99
2023-05-22T03:13:22.791Z,99.99
2023-05-22T03:14:22.757Z,99.99
2023-05-22T03:15:22.751Z,99.99
2023-05-22T03:16:22.801Z,99.99
2023-05-22T03:17:22.810Z,99.07
2023-05-22T03:18:23.891Z,99.78
2023-05-22T03:19:22.950Z,99.48
2023-05-22T03:20:22.888Z,99.78
2023-05-22T03:21:22.911Z,99.98
2023-05-22T03:22:22.937Z,99.88
2023-05-22T03:23:22.984Z,99.99
2023-05-22T03:24:22.998Z,99.88
2023-05-22T03:25:23.021Z,99.98
2023-05-22T03:26:23.020Z,99.68
2023-05-22T03:27:23.045Z,99.58
2023-05-22T03:28:23.069Z,99.18
2023-05-22T03:29:23.163Z,99.52
2023-05-22T03:30:23.125Z,98.61
2023-05-22T03:31:23.138Z,99.22
2023-05-22T03:32:23.188Z,99.73
2023-05-22T03:33:23.209Z,99.07
2023-05-22T03:34:23.260Z,98.92
2023-05-22T03:35:23.233Z,99.52
2023-05-22T03:36:23.258Z,99.32
2023-05-22T03:37:23.284Z,98.61
2023-05-22T03:38:23.307Z,98.21
2023-05-22T03:39:23.360Z,98.31
2023-05-22T03:40:23.377Z,98.61
2023-05-22T03:41:23.376Z,98.61
2023-05-22T03:42:23.436Z,98.21
2023-05-22T03:43:23.424Z,98.31
2023-05-22T03:44:23.474Z,98.21
2023-05-22T03:45:23.475Z,98.61
2023-05-22T03:46:23.555Z,98.41
2023-05-22T03:47:23.573Z,98.71
2023-05-22T03:48:23.549Z,98.01
2023-05-22T03:49:23.569Z,98.41
2023-05-22T03:50:23.589Z,98.51
2023-05-22T03:51:23.615Z,98.41
2023-05-22T03:52:23.684Z,98.51
2023-05-22T03:53:23.658Z,98.61
2023-05-22T03:54:23.711Z,98.51
2023-05-22T03:55:23.706Z,98.51
2023-05-22T03:56:23.731Z,98.61
2023-05-22T03:57:23.786Z,98.36
2023-05-22T03:58:23.784Z,98.31
2023-05-22T03:59:23.798Z,98.61
2023-05-22T04:00:25.237Z,98.76
2023-05-22T04:01:23.873Z,98.36
2023-05-22T04:02:24.006Z,98.25
2023-05-22T04:03:24.009Z,98.46
2023-05-22T04:04:23.926Z,98.25
2023-05-22T04:05:23.992Z,98.51
2023-05-22T04:06:23.972Z,98.05
2023-05-22T04:07:24.019Z,98.05
2023-05-22T04:08:24.022Z,97.05
2023-05-22T04:09:24.066Z,97.10
2023-05-22T04:10:24.080Z,97.00
2023-05-22T04:11:24.083Z,97.40
2023-05-22T04:12:24.130Z,97.45
2023-05-22T04:13:24.130Z,97.65
2023-05-22T04:14:24.151Z,97.25
2023-05-22T04:15:24.175Z,96.94
2023-05-22T04:16:24.269Z,97.25
2023-05-22T04:17:24.417Z,97.25
2023-05-22T04:18:24.240Z,97.85
2023-05-22T04:19:24.342Z,97.05
2023-05-22T04:20:24.288Z,97.34
2023-05-22T04:21:24.315Z,98.25
2023-05-22T04:22:24.333Z,98.25
2023-05-22T04:23:24.363Z,98.16
2023-05-22T04:24:24.444Z,97.91
2023-05-22T04:25:24.404Z,98.25
2023-05-22T04:26:24.442Z,98.25
2023-05-22T04:27:24.460Z,98.25
2023-05-22T04:28:24.492Z,97.75
2023-05-22T04:29:24.540Z,97.65
2023-05-22T04:30:24.527Z,97.75
2023-05-22T04:31:24.580Z,97.55
2023-05-22T04:32:24.631Z,97.25
2023-05-22T04:33:24.608Z,97.25
2023-05-22T04:34:24.651Z,97.14
2023-05-22T04:35:24.637Z,97.10
2023-05-22T04:36:24.664Z,97.40
2023-05-22T04:37:24.686Z,97.80
2023-05-22T04:38:24.709Z,97.71
2023-05-22T04:39:24.790Z,97.20
2023-05-22T04:40:24.756Z,97.20
2023-05-22T04:41:24.775Z,97.20
2023-05-22T04:42:24.812Z,97.60
2023-05-22T04:43:24.827Z,98.41
2023-05-22T04:44:24.885Z,97.91
2023-05-22T04:45:24.904Z,98.11
2023-05-22T04:46:24.946Z,98.01
2023-05-22T04:47:24.973Z,98.11
2023-05-22T04:48:24.943Z,98.01
2023-05-22T04:49:24.964Z,98.51
2023-05-22T04:50:25.057Z,98.41
2023-05-22T04:51:25.015Z,98.21
2023-05-22T04:52:25.037Z,98.46
2023-05-22T04:53:25.072Z,98.41
2023-05-22T04:54:25.080Z,98.56
2023-05-22T04:55:25.155Z,99.27
2023-05-22T04:56:35.650Z,99.02
2023-05-22T04:57:25.154Z,98.92
2023-05-22T04:58:25.283Z,99.16
2023-05-22T04:59:25.201Z,99.83
2023-05-22T05:00:25.259Z,99.99
2023-05-22T05:01:25.275Z,99.93
2023-05-22T05:02:25.339Z,99.99
2023-05-22T05:03:25.323Z,99.99
2023-05-22T05:04:25.383Z,99.99
2023-05-22T05:05:25.342Z,99.99
2023-05-22T05:06:25.377Z,99.99
2023-05-22T05:07:25.395Z,99.99
2023-05-22T05:08:25.439Z,99.99
2023-05-22T05:09:25.463Z,99.99
2023-05-22T05:10:25.462Z,99.99
2023-05-22T05:11:25.480Z,99.99
2023-05-22T05:12:25.510Z,99.99
2023-05-22T05:13:25.547Z,99.99
2023-05-22T05:14:25.564Z,99.99
2023-05-22T05:15:25.613Z,99.99
2023-05-22T05:16:25.615Z,99.99
2023-05-22T05:17:25.727Z,99.99
2023-05-22T05:18:25.646Z,99.99
2023-05-22T05:19:25.769Z,99.99
2023-05-22T05:20:25.738Z,99.99
2023-05-22T05:21:25.722Z,99.99
2023-05-22T05:22:25.751Z,99.99
2023-05-22T05:23:25.765Z,99.99
2023-05-22T05:24:25.791Z,99.99
2023-05-22T05:25:25.847Z,99.99
2023-05-22T05:26:25.838Z,99.99
2023-05-22T05:27:25.858Z,99.99
2023-05-22T05:28:25.894Z,99.99
2023-05-22T05:29:25.921Z,99.99
2023-05-22T05:30:25.941Z,99.99
2023-05-22T05:31:25.986Z,99.99
2023-05-22T05:32:26.072Z,99.99
2023-05-22T05:33:26.001Z,99.99
2023-05-22T05:34:26.031Z,99.99
2023-05-22T05:35:26.058Z,99.99
2023-05-22T05:36:26.074Z,99.99
2023-05-22T05:37:26.141Z,99.99
2023-05-22T05:38:26.123Z,99.99
2023-05-22T05:39:26.152Z,99.99
2023-05-22T05:40:26.178Z,99.99
2023-05-22T05:41:26.211Z,99.99
2023-05-22T05:42:26.271Z,99.99
2023-05-22T05:43:26.239Z,99.99
2023-05-22T05:44:26.265Z,99.99
2023-05-22T05:45:26.284Z,99.99
2023-05-22T05:46:26.345Z,99.99
2023-05-22T05:47:26.405Z,99.99
2023-05-22T05:48:26.360Z,99.99
2023-05-22T05:49:26.381Z,99.99
2023-05-22T05:50:26.414Z,99.99
2023-05-22T05:51:26.459Z,99.99
2023-05-22T05:52:26.493Z,99.99
2023-05-22T05:53:26.508Z,99.99
2023-05-22T05:54:26.500Z,99.99
2023-05-22T05:55:26.527Z,99.99
2023-05-22T05:56:26.552Z,99.99
2023-05-22T05:57:26.576Z,99.99
2023-05-22T05:58:26.672Z,99.99
2023-05-22T05:59:26.673Z,99.99
2023-05-22T06:00:26.651Z,99.99
2023-05-22T06:01:26.677Z,99.99
2023-05-22T06:02:26.871Z,99.99
2023-05-22T06:03:26.802Z,99.99
2023-05-22T06:04:26.754Z,99.99
2023-05-22T06:05:26.827Z,99.99
2023-05-22T06:06:26.790Z,99.99
2023-05-22T06:07:26.818Z,99.99
2023-05-22T06:08:26.852Z,99.99
2023-05-22T06:09:26.935Z,99.99
2023-05-22T06:10:26.899Z,99.99
2023-05-22T06:11:26.913Z,99.99
2023-05-22T06:12:26.953Z,99.99
2023-05-22T06:13:26.957Z,99.99
2023-05-22T06:14:27.010Z,99.99
2023-05-22T06:15:27.045Z,99.99
2023-05-22T06:16:27.085Z,99.99
2023-05-22T06:17:27.102Z,99.99
2023-05-22T06:18:27.130Z,99.63
2023-05-22T06:19:27.229Z,99.84
2023-05-22T06:20:27.265Z,99.99
2023-05-22T06:21:27.210Z,99.99
2023-05-22T06:22:27.239Z,99.73
2023-05-22T06:23:27.261Z,99.84
2023-05-22T06:24:27.261Z,99.22
2023-05-22T06:25:27.377Z,99.43
2023-05-22T06:26:27.305Z,99.22
2023-05-22T06:27:27.338Z,99.22
2023-05-22T06:28:27.374Z,98.88
2023-05-22T06:29:27.396Z,99.13
2023-05-22T06:30:39.676Z,98.82
2023-05-22T06:31:27.459Z,98.93
2023-05-22T06:32:27.499Z,98.72
2023-05-22T06:33:27.520Z,98.82
2023-05-22T06:34:27.649Z,99.13
2023-05-22T06:35:27.486Z,98.93
2023-05-22T06:36:27.512Z,98.52
2023-05-22T06:37:27.542Z,98.32
2023-05-22T06:38:27.559Z,98.11
2023-05-22T06:39:28.438Z,98.11
2023-05-22T06:40:27.614Z,98.22
2023-05-22T06:41:27.662Z,98.22
2023-05-22T06:42:27.656Z,98.11
2023-05-22T06:43:27.687Z,98.22
2023-05-22T06:44:27.714Z,98.11
2023-05-22T06:45:27.724Z,98.22
2023-05-22T06:46:27.952Z,98.22
2023-05-22T06:47:27.828Z,98.11
2023-05-22T06:48:27.797Z,98.32
2023-05-22T06:49:27.825Z,98.07
2023-05-22T06:50:28.098Z,98.11
2023-05-22T06:51:27.899Z,98.07
2023-05-22T06:52:27.922Z,98.17
2023-05-22T06:53:27.915Z,98.02
2023-05-22T06:54:27.969Z,97.87
2023-05-22T06:55:27.989Z,97.81
2023-05-22T06:56:28.001Z,98.11
2023-05-22T06:57:28.755Z,98.07
2023-05-22T06:58:28.091Z,98.17
2023-05-22T06:59:28.095Z,97.77
2023-05-22T07:00:28.148Z,98.07
2023-05-22T07:01:28.171Z,97.87
2023-05-22T07:02:28.290Z,97.97
2023-05-22T07:03:28.161Z,97.87
2023-05-22T07:04:28.192Z,98.47
2023-05-22T07:05:28.268Z,97.97
2023-05-22T07:06:28.272Z,98.37
2023-05-22T07:07:28.272Z,98.07
2023-05-22T07:08:30.334Z,98.27
2023-05-22T07:09:28.300Z,98.27
2023-05-22T07:10:28.408Z,98.37
2023-05-22T07:11:28.384Z,98.78
2023-05-22T07:12:28.378Z,98.78
2023-05-22T07:13:28.400Z,99.08
2023-05-22T07:14:28.422Z,98.93
2023-05-22T07:15:28.454Z,98.73
2023-05-22T07:16:28.525Z,99.33
2023-05-22T07:17:28.526Z,98.63
2023-05-22T07:18:28.522Z,98.63
2023-05-22T07:19:28.637Z,98.93
2023-05-22T07:20:28.624Z,98.93
2023-05-22T07:21:28.620Z,98.63
2023-05-22T07:22:28.733Z,98.79
2023-05-22T07:23:28.653Z,98.43
2023-05-22T07:24:28.676Z,98.73
2023-05-22T07:25:28.690Z,98.18
2023-05-22T07:26:28.752Z,98.38
2023-05-22T07:27:28.748Z,98.18
2023-05-22T07:28:28.767Z,98.18
2023-05-22T07:29:28.791Z,97.98
2023-05-22T07:30:28.833Z,98.08
2023-05-22T07:31:28.893Z,98.13
2023-05-22T07:32:28.938Z,98.18
2023-05-22T07:33:28.899Z,98.28
2023-05-22T07:34:29.643Z,97.33
2023-05-22T07:35:28.935Z,97.23
2023-05-22T07:36:28.985Z,96.12
2023-05-22T07:37:28.984Z,96.83
2023-05-22T07:38:29.057Z,96.83
2023-05-22T07:39:29.048Z,96.92
2023-05-22T07:40:29.060Z,96.62
2023-05-22T07:41:29.092Z,96.32
2023-05-22T07:42:29.114Z,96.32
2023-05-22T07:43:29.188Z,96.22
2023-05-22T07:44:29.170Z,96.32
2023-05-22T07:45:29.180Z,96.32
2023-05-22T07:46:29.291Z,96.52
2023-05-22T07:47:29.272Z,96.42
2023-05-22T07:48:29.295Z,96.62
2023-05-22T07:49:29.274Z,96.62
2023-05-22T07:50:29.313Z,96.32
2023-05-22T07:51:29.329Z,96.32
2023-05-22T07:52:29.351Z,96.42
2023-05-22T07:53:29.408Z,96.42
2023-05-22T07:54:29.460Z,96.32
2023-05-22T07:55:29.428Z,96.32
2023-05-22T07:56:29.454Z,96.17
2023-05-22T07:57:29.628Z,96.92
2023-05-22T07:58:29.575Z,96.88
2023-05-22T07:59:29.634Z,96.78
2023-05-22T08:00:29.570Z,96.92
2023-05-22T08:01:29.627Z,96.72
2023-05-22T08:02:29.753Z,96.78
2023-05-22T08:03:29.901Z,96.98
2023-05-22T08:04:29.721Z,96.88
2023-05-22T08:05:29.836Z,97.28
2023-05-22T08:06:29.698Z,96.88
2023-05-22T08:07:29.717Z,96.68
2023-05-22T08:08:31.687Z,96.98
2023-05-22T08:09:29.786Z,97.58
2023-05-22T08:10:37.301Z,97.28
2023-05-22T08:11:29.825Z,98.19
2023-05-22T08:12:29.877Z,98.19
2023-05-22T08:13:29.873Z,98.19
2023-05-22T08:14:29.895Z,97.69
2023-05-22T08:15:29.921Z,97.78
2023-05-22T08:16:29.972Z,98.09
2023-05-22T08:17:30.088Z,97.99
2023-05-22T08:18:30.298Z,97.99
2023-05-22T08:19:30.105Z,97.84
2023-05-22T08:20:30.075Z,97.94
2023-05-22T08:21:30.069Z,97.94
2023-05-22T08:22:30.131Z,97.94
2023-05-22T08:23:30.127Z,97.64
2023-05-22T08:24:30.145Z,98.09
2023-05-22T08:25:30.173Z,97.94
2023-05-22T08:26:32.111Z,97.84
2023-05-22T08:27:30.219Z,97.94
2023-05-22T08:28:30.244Z,98.04
2023-05-22T08:29:30.268Z,97.84
2023-05-22T08:30:30.291Z,97.94
2023-05-22T08:31:30.433Z,98.14
2023-05-22T08:32:31.393Z,98.04
2023-05-22T08:33:30.375Z,98.04
2023-05-22T08:34:30.457Z,97.64
2023-05-22T08:35:30.420Z,98.04
2023-05-22T08:36:30.441Z,98.24
2023-05-22T08:37:30.469Z,98.24
2023-05-22T08:38:30.493Z,98.24
2023-05-22T08:39:30.546Z,98.24
2023-05-22T08:40:30.542Z,98.44
2023-05-22T08:41:30.616Z,98.44
2023-05-22T08:42:30.597Z,98.14
2023-05-22T08:43:30.621Z,97.74
2023-05-22T08:44:30.672Z,98.24
2023-05-22T08:45:30.673Z,97.94
2023-05-22T08:46:30.762Z,96.83
2023-05-22T08:47:30.740Z,97.13
2023-05-22T08:48:30.756Z,97.24
2023-05-22T08:49:30.801Z,97.74
2023-05-22T08:50:30.794Z,97.74
2023-05-22T08:51:30.826Z,97.24
2023-05-22T08:52:30.844Z,97.74
2023-05-22T08:53:30.876Z,97.99
2023-05-22T08:54:30.973Z,98.10
2023-05-22T08:55:30.956Z,97.99
2023-05-22T08:56:31.067Z,98.19
2023-05-22T08:57:30.974Z,98.10
2023-05-22T08:58:31.083Z,97.69
2023-05-22T08:59:31.029Z,97.59
2023-05-22T09:00:31.088Z,97.59
2023-05-22T09:01:31.099Z,97.69
2023-05-22T09:02:31.112Z,97.64
2023-05-22T09:03:31.174Z,97.64
2023-05-22T09:04:31.154Z,97.75
2023-05-22T09:05:31.222Z,96.64
2023-05-22T09:06:31.205Z,95.84
2023-05-22T09:07:31.231Z,94.68
2023-05-22T09:08:31.282Z,93.08
2023-05-22T09:09:31.285Z,91.67
2023-05-22T09:10:31.332Z,91.13
2023-05-22T09:11:31.336Z,90.42
2023-05-22T09:12:31.387Z,92.03
2023-05-22T09:13:31.391Z,93.03
2023-05-22T09:14:31.446Z,91.99
2023-05-22T09:15:31.456Z,91.64
2023-05-22T09:16:31.501Z,90.94
2023-05-22T09:17:31.556Z,92.18
2023-05-22T09:18:31.525Z,92.94
2023-05-22T09:19:31.595Z,91.74
2023-05-22T09:20:31.577Z,92.84
2023-05-22T09:21:31.607Z,91.18
2023-05-22T09:22:31.657Z,90.98
2023-05-22T09:23:31.660Z,91.38
2023-05-22T09:24:31.687Z,92.14
2023-05-22T09:25:31.717Z,91.54
2023-05-22T09:26:31.741Z,92.14
2023-05-22T09:27:31.825Z,92.14
2023-05-22T09:28:31.810Z,92.30
2023-05-22T09:29:31.827Z,92.15
2023-05-22T09:30:32.133Z,92.01
2023-05-22T09:31:32.040Z,90.96
2023-05-22T09:32:31.948Z,90.52
2023-05-22T09:33:31.965Z,88.71
2023-05-22T09:34:31.963Z,87.41
2023-05-22T09:35:31.996Z,88.78
2023-05-22T09:36:32.022Z,89.23
2023-05-22T09:37:32.102Z,87.83
2023-05-22T09:38:32.079Z,86.09
2023-05-22T09:39:32.148Z,85.09
2023-05-22T09:40:32.133Z,84.39
2023-05-22T09:41:32.172Z,81.45
2023-05-22T09:42:32.192Z,80.69
2023-05-22T09:43:32.226Z,83.59
2023-05-22T09:44:32.259Z,83.29
2023-05-22T09:45:32.286Z,83.59
2023-05-22T09:46:32.408Z,83.75
2023-05-22T09:47:32.367Z,83.65
2023-05-22T09:48:32.374Z,83.95
2023-05-22T09:49:32.434Z,80.79
2023-05-22T09:50:32.443Z,81.39
2023-05-22T09:51:32.491Z,82.39
2023-05-22T09:52:32.499Z,83.69
2023-05-22T09:53:32.532Z,83.55
2023-05-22T09:54:32.676Z,84.05
2023-05-22T09:55:32.579Z,82.55
2023-05-22T09:56:39.184Z,83.15
2023-05-22T09:57:32.659Z,83.61
2023-05-22T09:58:32.669Z,83.41
2023-05-22T09:59:32.733Z,81.98
2023-05-22T10:00:32.730Z,80.58
2023-05-22T10:01:32.802Z,80.18
2023-05-22T10:02:32.842Z,79.17
2023-05-22T10:03:32.825Z,80.08
2023-05-22T10:04:32.958Z,80.44
2023-05-22T10:05:32.890Z,79.60
2023-05-22T10:06:32.919Z,78.67
2023-05-22T10:07:32.948Z,77.93
2023-05-22T10:08:32.978Z,77.69
2023-05-22T10:09:33.044Z,77.00
2023-05-22T10:10:33.051Z,76.86
2023-05-22T10:11:33.071Z,76.86
2023-05-22T10:12:33.102Z,74.57
2023-05-22T10:13:33.131Z,74.71
2023-05-22T10:14:33.246Z,75.60
2023-05-22T10:15:33.260Z,76.73
2023-05-22T10:16:33.290Z,76.24
2023-05-22T10:17:33.275Z,77.00
2023-05-22T10:18:33.323Z,76.86
2023-05-22T10:19:33.486Z,76.03
2023-05-22T10:20:33.394Z,76.09
2023-05-22T10:21:33.392Z,74.46
2023-05-22T10:22:33.424Z,72.47
2023-05-22T10:23:33.463Z,72.44
2023-05-22T10:24:33.488Z,72.81
2023-05-22T10:25:33.560Z,74.24
2023-05-22T10:26:33.576Z,75.94
2023-05-22T10:27:33.592Z,76.07
2023-05-22T10:28:33.626Z,76.37
2023-05-22T10:29:33.660Z,76.17
2023-05-22T10:30:33.699Z,77.43
2023-05-22T10:31:33.743Z,75.44
2023-05-22T10:32:33.806Z,75.54
2023-05-22T10:33:33.803Z,76.83
2023-05-22T10:34:33.935Z,75.54
2023-05-22T10:35:33.881Z,76.24
2023-05-22T10:36:33.925Z,75.37
2023-05-22T10:37:33.920Z,76.26
2023-05-22T10:38:34.018Z,76.37
2023-05-22T10:39:33.987Z,78.14
2023-05-22T10:40:34.020Z,78.24
2023-05-22T10:41:34.082Z,78.74
2023-05-22T10:42:34.193Z,78.34
2023-05-22T10:43:34.116Z,78.64
2023-05-22T10:44:34.171Z,79.34
2023-05-22T10:45:34.202Z,78.60
2023-05-22T10:46:34.353Z,78.47
2023-05-22T10:47:34.278Z,75.74
2023-05-22T10:48:34.276Z,77.27
2023-05-22T10:49:34.317Z,78.07
2023-05-22T10:50:34.452Z,78.41
2023-05-22T10:51:34.393Z,78.77
2023-05-22T10:52:34.455Z,78.41
2023-05-22T10:53:34.444Z,78.18
2023-05-22T10:54:34.474Z,79.41
2023-05-22T10:55:34.510Z,79.91
2023-05-22T10:56:34.544Z,80.41
2023-05-22T10:57:34.572Z,80.08
2023-05-22T10:58:34.599Z,80.24
2023-05-22T10:59:34.652Z,78.84
2023-05-22T11:00:34.660Z,79.76
2023-05-22T11:01:34.757Z,78.37
2023-05-22T11:02:34.769Z,78.13
2023-05-22T11:03:34.801Z,77.80
2023-05-22T11:04:34.807Z,76.34
2023-05-22T11:05:34.825Z,76.54
2023-05-22T11:06:35.012Z,76.57
2023-05-22T11:07:34.889Z,77.47
2023-05-22T11:08:34.942Z,77.07
2023-05-22T11:09:34.956Z,76.10
2023-05-22T11:10:34.976Z,77.59
2023-05-22T11:11:35.009Z,77.06
2023-05-22T11:12:35.046Z,75.23
2023-05-22T11:13:35.108Z,73.94
2023-05-22T11:14:35.109Z,73.57
2023-05-22T11:15:35.164Z,72.14
2023-05-22T11:16:35.177Z,72.86
2023-05-22T11:17:35.262Z,70.45
2023-05-22T11:18:35.264Z,70.12
2023-05-22T11:19:35.367Z,68.33
2023-05-22T11:20:35.307Z,69.79
2023-05-22T11:21:35.337Z,70.15
2023-05-22T11:22:35.480Z,68.63
2023-05-22T11:23:35.431Z,67.97
2023-05-22T11:24:35.450Z,66.71
2023-05-22T11:25:35.497Z,67.38
2023-05-22T11:26:35.508Z,69.20
2023-05-22T11:27:35.542Z,69.85
2023-05-22T11:28:35.604Z,69.09
2023-05-22T11:29:35.705Z,68.57
2023-05-22T11:30:35.638Z,67.77
2023-05-22T11:31:35.691Z,68.17
2023-05-22T11:32:35.809Z,68.70
2023-05-22T11:33:35.750Z,70.32
2023-05-22T11:34:35.809Z,70.25
2023-05-22T11:35:35.896Z,72.97
2023-05-22T11:36:35.858Z,72.48
2023-05-22T11:37:35.891Z,75.64
2023-05-22T11:38:36.022Z,76.14
2023-05-22T11:39:35.952Z,76.17
2023-05-22T11:40:36.016Z,76.87
2023-05-22T11:41:36.025Z,77.67
2023-05-22T11:42:36.065Z,77.61
2023-05-22T11:43:36.093Z,77.84
2023-05-22T11:44:36.150Z,77.84
2023-05-22T11:45:36.181Z,77.64
2023-05-22T11:46:36.236Z,78.64
2023-05-22T11:47:36.294Z,77.58
2023-05-22T11:48:36.283Z,78.58
2023-05-22T11:49:36.296Z,78.78
2023-05-22T11:50:42.211Z,78.48
2023-05-22T11:51:36.354Z,78.58
2023-05-22T11:52:36.383Z,78.72
2023-05-22T11:53:36.442Z,78.22
2023-05-22T11:54:38.583Z,78.22
2023-05-22T11:55:36.513Z,78.81
2023-05-22T11:56:36.516Z,79.52
2023-05-22T11:57:36.542Z,78.52
2023-05-22T11:58:36.589Z,78.38
2023-05-22T11:59:36.598Z,78.18
2023-05-22T12:00:36.802Z,78.64
2023-05-22T12:01:36.688Z,79.50
2023-05-22T12:02:36.776Z,78.41
2023-05-22T12:03:36.816Z,77.01
2023-05-22T12:04:36.761Z,77.84
2023-05-22T12:05:36.844Z,76.65
2023-05-22T12:06:36.906Z,77.51
2023-05-22T12:07:36.846Z,76.31
2023-05-22T12:08:36.875Z,75.87
2023-05-22T12:09:36.905Z,74.88
2023-05-22T12:10:37.318Z,74.68
2023-05-22T12:11:36.996Z,74.11
2023-05-22T12:12:37.023Z,78.50
2023-05-22T12:13:37.036Z,79.30
2023-05-22T12:14:37.072Z,79.60
2023-05-22T12:15:37.105Z,78.70
2023-05-22T12:16:37.199Z,77.57
2023-05-22T12:17:37.211Z,77.47
2023-05-22T12:18:37.217Z,79.57
2023-05-22T12:19:37.269Z,79.06
2023-05-22T12:20:37.498Z,77.57
2023-05-22T12:21:37.286Z,78.27
2023-05-22T12:22:37.341Z,77.87
2023-05-22T12:23:37.341Z,78.33
2023-05-22T12:24:37.379Z,78.33
2023-05-22T12:25:37.434Z,77.66
2023-05-22T12:26:37.591Z,75.16
2023-05-22T12:27:38.612Z,73.41
2023-05-22T12:28:37.497Z,74.80
2023-05-22T12:29:37.533Z,74.01
2023-05-22T12:30:37.798Z,74.11
2023-05-22T12:31:37.763Z,74.90
2023-05-22T12:32:37.784Z,73.81
2023-05-22T12:33:37.658Z,72.65
2023-05-22T12:34:37.693Z,75.14
2023-05-22T12:35:37.750Z,75.34
2023-05-22T12:36:37.749Z,74.64
2023-05-22T12:37:37.780Z,76.14
2023-05-22T12:38:37.817Z,76.34
2023-05-22T12:39:37.860Z,77.23
2023-05-22T12:40:38.064Z,76.54
2023-05-22T12:41:37.908Z,76.83
2023-05-22T12:42:38.051Z,74.41
2023-05-22T12:43:37.971Z,77.03
2023-05-22T12:44:38.002Z,75.54
2023-05-22T12:45:38.086Z,74.80
2023-05-22T12:46:38.126Z,78.29
2023-05-22T12:47:38.116Z,76.24
2023-05-22T12:48:38.157Z,78.63
2023-05-22T12:49:38.164Z,77.13
2023-05-22T12:50:38.408Z,76.34
2023-05-22T12:51:38.228Z,75.54
2023-05-22T12:52:38.254Z,75.24